sensor_id;sensor_type;location;lat;lon;timestamp;pressure;altitude;pressure_sealevel;temperature;humidity
56668;BME280;42542;48.360;10.958;2023-03-23T00:01:27;95691.66;;;8.32;73.36
56668;BME280;42542;48.360;10.958;2023-03-23T00:04:30;95691.50;;;8.34;73.04
56668;BME280;42542;48.360;10.958;2023-03-23T00:07:31;95689.66;;;8.34;73.21
56668;BME280;42542;48.360;10.958;2023-03-23T00:10:35;95690.31;;;8.36;73.73
56668;BME280;42542;48.360;10.958;2023-03-23T00:13:35;95689.34;;;8.37;73.84
56668;BME280;42542;48.360;10.958;2023-03-23T00:16:36;95693.66;;;8.38;73.67
56668;BME280;42542;48.360;10.958;2023-03-23T00:19:38;95683.00;;;8.38;73.10
56668;BME280;42542;48.360;10.958;2023-03-23T00:22:45;95686.50;;;8.39;73.37
56668;BME280;42542;48.360;10.958;2023-03-23T00:25:54;95690.84;;;8.40;73.78
56668;BME280;42542;48.360;10.958;2023-03-23T00:28:58;95693.50;;;8.40;74.01
56668;BME280;42542;48.360;10.958;2023-03-23T00:32:02;95677.69;;;8.38;73.96
56668;BME280;42542;48.360;10.958;2023-03-23T00:35:06;95687.50;;;8.38;74.26
56668;BME280;42542;48.360;10.958;2023-03-23T00:38:07;95684.84;;;8.38;74.38
56668;BME280;42542;48.360;10.958;2023-03-23T00:41:08;95678.69;;;8.37;74.80
56668;BME280;42542;48.360;10.958;2023-03-23T00:44:12;95683.16;;;8.37;74.68
56668;BME280;42542;48.360;10.958;2023-03-23T00:47:17;95678.19;;;8.34;75.00
56668;BME280;42542;48.360;10.958;2023-03-23T00:50:18;95671.34;;;8.31;74.49
56668;BME280;42542;48.360;10.958;2023-03-23T00:53:18;95680.44;;;8.29;74.52
56668;BME280;42542;48.360;10.958;2023-03-23T00:56:19;95675.59;;;8.24;75.39
56668;BME280;42542;48.360;10.958;2023-03-23T00:59:20;95671.13;;;8.24;75.40
56668;BME280;42542;48.360;10.958;2023-03-23T01:02:21;95676.75;;;8.21;75.41
56668;BME280;42542;48.360;10.958;2023-03-23T01:05:24;95676.94;;;8.20;75.63
56668;BME280;42542;48.360;10.958;2023-03-23T01:08:32;95670.09;;;8.17;75.72
56668;BME280;42542;48.360;10.958;2023-03-23T01:11:33;95670.94;;;8.18;75.87
56668;BME280;42542;48.360;10.958;2023-03-23T01:14:33;95660.78;;;8.13;76.12
56668;BME280;42542;48.360;10.958;2023-03-23T01:17:34;95655.44;;;8.13;76.31
56668;BME280;42542;48.360;10.958;2023-03-23T01:20:36;95654.78;;;8.11;76.85
56668;BME280;42542;48.360;10.958;2023-03-23T01:23:38;95643.78;;;8.06;76.56
56668;BME280;42542;48.360;10.958;2023-03-23T01:26:39;95648.63;;;8.11;76.93
56668;BME280;42542;48.360;10.958;2023-03-23T01:29:40;95645.25;;;8.09;76.93
56668;BME280;42542;48.360;10.958;2023-03-23T01:32:40;95628.13;;;8.03;77.03
56668;BME280;42542;48.360;10.958;2023-03-23T01:35:41;95630.63;;;8.05;76.84
56668;BME280;42542;48.360;10.958;2023-03-23T01:38:43;95623.63;;;8.04;77.24
56668;BME280;42542;48.360;10.958;2023-03-23T01:41:44;95626.28;;;8.04;77.16
56668;BME280;42542;48.360;10.958;2023-03-23T01:48:13;95627.28;;;8.03;78.32
56668;BME280;42542;48.360;10.958;2023-03-23T01:51:18;95625.63;;;8.02;77.96
56668;BME280;42542;48.360;10.958;2023-03-23T01:54:24;95620.28;;;8.02;78.13
56668;BME280;42542;48.360;10.958;2023-03-23T01:57:30;95629.09;;;8.02;78.49
56668;BME280;42542;48.360;10.958;2023-03-23T02:00:33;95623.44;;;7.97;78.66
56668;BME280;42542;48.360;10.958;2023-03-23T02:03:36;95636.09;;;8.03;78.31
56668;BME280;42542;48.360;10.958;2023-03-23T02:06:39;95634.13;;;8.05;79.05
56668;BME280;42542;48.360;10.958;2023-03-23T02:09:46;95629.63;;;8.06;78.45
56668;BME280;42542;48.360;10.958;2023-03-23T02:12:47;95624.97;;;8.08;79.06
56668;BME280;42542;48.360;10.958;2023-03-23T02:16:00;95622.16;;;8.09;79.24
56668;BME280;42542;48.360;10.958;2023-03-23T02:19:30;95614.16;;;8.09;79.66
56668;BME280;42542;48.360;10.958;2023-03-23T02:23:22;95605.19;;;8.10;79.17
56668;BME280;42542;48.360;10.958;2023-03-23T02:29:26;95609.38;;;8.13;80.07
56668;BME280;42542;48.360;10.958;2023-03-23T02:33:28;95603.19;;;8.12;79.36
56668;BME280;42542;48.360;10.958;2023-03-23T02:39:32;95607.03;;;8.18;79.88
56668;BME280;42542;48.360;10.958;2023-03-23T02:42:36;95603.38;;;8.19;79.61
56668;BME280;42542;48.360;10.958;2023-03-23T02:45:43;95621.88;;;8.20;79.66
56668;BME280;42542;48.360;10.958;2023-03-23T02:48:46;95608.38;;;8.22;79.63
56668;BME280;42542;48.360;10.958;2023-03-23T02:51:50;95611.88;;;8.22;79.84
56668;BME280;42542;48.360;10.958;2023-03-23T02:54:53;95611.72;;;8.24;80.00
56668;BME280;42542;48.360;10.958;2023-03-23T02:57:58;95602.22;;;8.21;79.67
56668;BME280;42542;48.360;10.958;2023-03-23T03:04:39;95612.22;;;8.28;79.89
56668;BME280;42542;48.360;10.958;2023-03-23T03:08:12;95622.56;;;8.31;80.37
56668;BME280;42542;48.360;10.958;2023-03-23T03:11:16;95610.94;;;8.32;79.81
56668;BME280;42542;48.360;10.958;2023-03-23T03:14:24;95607.28;;;8.33;79.49
56668;BME280;42542;48.360;10.958;2023-03-23T03:17:29;95622.91;;;8.36;79.83
56668;BME280;42542;48.360;10.958;2023-03-23T03:20:32;95623.75;;;8.36;80.27
56668;BME280;42542;48.360;10.958;2023-03-23T03:23:37;95617.59;;;8.36;80.12
56668;BME280;42542;48.360;10.958;2023-03-23T03:26:42;95616.28;;;8.40;80.15
56668;BME280;42542;48.360;10.958;2023-03-23T03:30:08;95609.13;;;8.40;80.01
56668;BME280;42542;48.360;10.958;2023-03-23T03:33:15;95617.78;;;8.42;80.33
56668;BME280;42542;48.360;10.958;2023-03-23T03:36:21;95611.63;;;8.42;80.55
56668;BME280;42542;48.360;10.958;2023-03-23T03:39:22;95616.78;;;8.43;80.15
56668;BME280;42542;48.360;10.958;2023-03-23T03:42:23;95622.09;;;8.43;80.38
56668;BME280;42542;48.360;10.958;2023-03-23T03:45:26;95612.47;;;8.42;80.11
56668;BME280;42542;48.360;10.958;2023-03-23T03:48:27;95620.13;;;8.45;80.63
56668;BME280;42542;48.360;10.958;2023-03-23T03:51:29;95642.25;;;8.46;80.86
56668;BME280;42542;48.360;10.958;2023-03-23T03:54:30;95640.44;;;8.46;80.66
56668;BME280;42542;48.360;10.958;2023-03-23T03:57:31;95652.59;;;8.49;80.58
56668;BME280;42542;48.360;10.958;2023-03-23T04:00:51;95658.56;;;8.51;81.07
56668;BME280;42542;48.360;10.958;2023-03-23T04:03:58;95652.25;;;8.52;80.01
56668;BME280;42542;48.360;10.958;2023-03-23T04:07:06;95666.25;;;8.54;80.90
56668;BME280;42542;48.360;10.958;2023-03-23T04:10:08;95658.09;;;8.55;80.42
56668;BME280;42542;48.360;10.958;2023-03-23T04:13:11;95659.59;;;8.58;80.98
56668;BME280;42542;48.360;10.958;2023-03-23T04:16:32;95650.44;;;8.60;81.77
56668;BME280;42542;48.360;10.958;2023-03-23T04:19:37;95658.28;;;8.62;82.34
56668;BME280;42542;48.360;10.958;2023-03-23T04:22:39;95653.63;;;8.64;83.01
56668;BME280;42542;48.360;10.958;2023-03-23T04:25:39;95644.63;;;8.65;83.95
56668;BME280;42542;48.360;10.958;2023-03-23T04:28:42;95624.47;;;8.63;84.17
56668;BME280;42542;48.360;10.958;2023-03-23T04:32:09;95623.31;;;8.65;84.45
56668;BME280;42542;48.360;10.958;2023-03-23T04:35:14;95630.47;;;8.65;85.06
56668;BME280;42542;48.360;10.958;2023-03-23T04:38:23;95623.16;;;8.67;86.05
56668;BME280;42542;48.360;10.958;2023-03-23T04:41:30;95627.47;;;8.68;84.92
56668;BME280;42542;48.360;10.958;2023-03-23T04:44:52;95614.16;;;8.68;86.16
56668;BME280;42542;48.360;10.958;2023-03-23T04:48:02;95612.50;;;8.67;86.99
56668;BME280;42542;48.360;10.958;2023-03-23T04:51:29;95613.16;;;8.69;86.28
56668;BME280;42542;48.360;10.958;2023-03-23T04:54:36;95603.34;;;8.69;85.85
56668;BME280;42542;48.360;10.958;2023-03-23T04:57:37;95593.69;;;8.68;86.48
56668;BME280;42542;48.360;10.958;2023-03-23T05:01:04;95603.19;;;8.71;86.59
56668;BME280;42542;48.360;10.958;2023-03-23T05:04:08;95600.31;;;8.72;86.61
56668;BME280;42542;48.360;10.958;2023-03-23T05:07:10;95591.50;;;8.72;86.90
56668;BME280;42542;48.360;10.958;2023-03-23T05:10:17;95587.84;;;8.73;86.83
56668;BME280;42542;48.360;10.958;2023-03-23T05:13:18;95592.19;;;8.74;86.49
56668;BME280;42542;48.360;10.958;2023-03-23T05:16:22;95595.69;;;8.74;86.25
56668;BME280;42542;48.360;10.958;2023-03-23T05:19:26;95589.34;;;8.75;86.51
56668;BME280;42542;48.360;10.958;2023-03-23T05:22:36;95581.69;;;8.72;86.44
56668;BME280;42542;48.360;10.958;2023-03-23T05:25:43;95575.19;;;8.75;85.94
56668;BME280;42542;48.360;10.958;2023-03-23T05:28:54;95569.88;;;8.75;86.19
56668;BME280;42542;48.360;10.958;2023-03-23T05:32:00;95567.88;;;8.77;85.24
56668;BME280;42542;48.360;10.958;2023-03-23T05:35:07;95566.69;;;8.79;85.57
56668;BME280;42542;48.360;10.958;2023-03-23T05:38:10;95561.34;;;8.79;85.31
56668;BME280;42542;48.360;10.958;2023-03-23T05:41:14;95558.38;;;8.82;85.10
56668;BME280;42542;48.360;10.958;2023-03-23T05:44:16;95552.06;;;8.83;85.83
56668;BME280;42542;48.360;10.958;2023-03-23T05:47:30;95545.72;;;8.84;85.87
56668;BME280;42542;48.360;10.958;2023-03-23T05:50:37;95546.56;;;8.85;85.79
56668;BME280;42542;48.360;10.958;2023-03-23T05:53:40;95554.88;;;8.90;85.54
56668;BME280;42542;48.360;10.958;2023-03-23T05:56:46;95555.56;;;8.92;85.76
56668;BME280;42542;48.360;10.958;2023-03-23T06:00:11;95555.03;;;8.96;85.63
56668;BME280;42542;48.360;10.958;2023-03-23T06:03:18;95563.53;;;9.00;84.43
56668;BME280;42542;48.360;10.958;2023-03-23T06:06:38;95554.03;;;9.06;84.03
56668;BME280;42542;48.360;10.958;2023-03-23T06:09:46;95556.00;;;9.12;84.58
56668;BME280;42542;48.360;10.958;2023-03-23T06:13:24;95547.69;;;9.15;84.33
56668;BME280;42542;48.360;10.958;2023-03-23T06:16:28;95554.81;;;9.22;83.42
56668;BME280;42542;48.360;10.958;2023-03-23T06:19:38;95560.34;;;9.29;83.12
56668;BME280;42542;48.360;10.958;2023-03-23T06:22:45;95558.81;;;9.34;82.88
56668;BME280;42542;48.360;10.958;2023-03-23T06:26:01;95561.47;;;9.43;82.95
56668;BME280;42542;48.360;10.958;2023-03-23T06:29:05;95564.28;;;9.49;82.85
56668;BME280;42542;48.360;10.958;2023-03-23T06:32:22;95555.91;;;9.52;82.40
56668;BME280;42542;48.360;10.958;2023-03-23T06:35:31;95563.59;;;9.55;83.27
56668;BME280;42542;48.360;10.958;2023-03-23T06:38:49;95569.38;;;9.67;82.69
56668;BME280;42542;48.360;10.958;2023-03-23T06:41:59;95579.34;;;9.73;82.91
56668;BME280;42542;48.360;10.958;2023-03-23T06:45:05;95575.19;;;9.78;82.80
56668;BME280;42542;48.360;10.958;2023-03-23T06:48:12;95568.16;;;9.86;82.72
56668;BME280;42542;48.360;10.958;2023-03-23T06:51:14;95577.13;;;9.93;82.72
56668;BME280;42542;48.360;10.958;2023-03-23T06:54:20;95579.94;;;9.99;82.77
56668;BME280;42542;48.360;10.958;2023-03-23T06:57:21;95580.06;;;10.06;82.56
56668;BME280;42542;48.360;10.958;2023-03-23T07:00:25;95576.69;;;10.12;82.53
56668;BME280;42542;48.360;10.958;2023-03-23T07:03:26;95560.50;;;10.13;82.25
56668;BME280;42542;48.360;10.958;2023-03-23T07:06:31;95567.13;;;10.26;82.09
56668;BME280;42542;48.360;10.958;2023-03-23T07:09:36;95560.25;;;10.31;80.90
56668;BME280;42542;48.360;10.958;2023-03-23T07:12:38;95560.03;;;10.41;81.15
56668;BME280;42542;48.360;10.958;2023-03-23T07:15:42;95568.66;;;10.51;80.62
56668;BME280;42542;48.360;10.958;2023-03-23T07:18:44;95572.09;;;10.60;79.38
56668;BME280;42542;48.360;10.958;2023-03-23T07:21:45;95576.19;;;10.70;80.68
56668;BME280;42542;48.360;10.958;2023-03-23T07:24:47;95572.81;;;10.76;79.58
56668;BME280;42542;48.360;10.958;2023-03-23T07:27:53;95579.59;;;10.87;79.11
56668;BME280;42542;48.360;10.958;2023-03-23T07:30:55;95576.19;;;10.93;78.75
56668;BME280;42542;48.360;10.958;2023-03-23T07:33:56;95571.25;;;11.05;78.89
56668;BME280;42542;48.360;10.958;2023-03-23T07:37:04;95577.34;;;11.13;79.02
56668;BME280;42542;48.360;10.958;2023-03-23T07:40:09;95577.94;;;11.23;78.59
56668;BME280;42542;48.360;10.958;2023-03-23T07:43:17;95581.34;;;11.32;77.09
56668;BME280;42542;48.360;10.958;2023-03-23T07:46:36;95580.44;;;11.40;76.37
56668;BME280;42542;48.360;10.958;2023-03-23T07:49:44;95585.38;;;11.51;75.19
56668;BME280;42542;48.360;10.958;2023-03-23T07:53:05;95588.41;;;11.62;74.79
56668;BME280;42542;48.360;10.958;2023-03-23T07:56:13;95588.97;;;11.72;73.80
56668;BME280;42542;48.360;10.958;2023-03-23T07:59:27;95582.53;;;11.82;73.25
56668;BME280;42542;48.360;10.958;2023-03-23T08:02:32;95587.78;;;11.90;73.46
56668;BME280;42542;48.360;10.958;2023-03-23T08:06:06;95594.53;;;12.00;72.60
56668;BME280;42542;48.360;10.958;2023-03-23T08:09:28;95598.59;;;12.11;72.31
56668;BME280;42542;48.360;10.958;2023-03-23T08:12:53;95597.09;;;12.23;72.20
56668;BME280;42542;48.360;10.958;2023-03-23T08:16:15;95593.28;;;12.32;71.51
56668;BME280;42542;48.360;10.958;2023-03-23T08:19:37;95609.97;;;12.49;70.55
56668;BME280;42542;48.360;10.958;2023-03-23T08:23:01;95600.63;;;12.60;69.03
56668;BME280;42542;48.360;10.958;2023-03-23T08:26:12;95603.28;;;12.74;68.57
56668;BME280;42542;48.360;10.958;2023-03-23T08:29:40;95602.38;;;12.88;68.39
56668;BME280;42542;48.360;10.958;2023-03-23T08:33:20;95604.19;;;13.03;67.32
56668;BME280;42542;48.360;10.958;2023-03-23T08:36:33;95616.72;;;13.17;66.68
56668;BME280;42542;48.360;10.958;2023-03-23T08:39:54;95610.44;;;13.31;64.78
56668;BME280;42542;48.360;10.958;2023-03-23T08:43:20;95611.19;;;13.46;64.66
56668;BME280;42542;48.360;10.958;2023-03-23T08:46:40;95616.91;;;13.64;64.04
56668;BME280;42542;48.360;10.958;2023-03-23T08:49:41;95615.56;;;13.75;63.08
56668;BME280;42542;48.360;10.958;2023-03-23T08:53:06;95629.69;;;13.90;60.73
56668;BME280;42542;48.360;10.958;2023-03-23T08:56:22;95629.16;;;14.01;60.03
56668;BME280;42542;48.360;10.958;2023-03-23T08:59:42;95631.25;;;14.13;58.53
56668;BME280;42542;48.360;10.958;2023-03-23T09:03:03;95634.06;;;14.26;58.54
56668;BME280;42542;48.360;10.958;2023-03-23T09:06:22;95635.81;;;14.40;55.83
56668;BME280;42542;48.360;10.958;2023-03-23T09:09:23;95633.56;;;14.50;53.88
56668;BME280;42542;48.360;10.958;2023-03-23T09:12:25;95632.78;;;14.63;55.63
56668;BME280;42542;48.360;10.958;2023-03-23T09:15:26;95639.00;;;14.70;53.28
56668;BME280;42542;48.360;10.958;2023-03-23T09:18:28;95639.28;;;14.81;52.66
56668;BME280;42542;48.360;10.958;2023-03-23T09:21:28;95636.63;;;14.95;52.42
56668;BME280;42542;48.360;10.958;2023-03-23T09:24:30;95647.00;;;15.04;52.44
56668;BME280;42542;48.360;10.958;2023-03-23T09:27:31;95646.81;;;15.12;51.74
56668;BME280;42542;48.360;10.958;2023-03-23T09:30:33;95637.50;;;15.21;52.51
56668;BME280;42542;48.360;10.958;2023-03-23T09:33:36;95643.31;;;15.32;51.82
56668;BME280;42542;48.360;10.958;2023-03-23T09:36:38;95645.81;;;15.40;51.58
56668;BME280;42542;48.360;10.958;2023-03-23T09:39:41;95636.72;;;15.47;51.08
56668;BME280;42542;48.360;10.958;2023-03-23T09:49:26;95645.47;;;15.76;50.72
56668;BME280;42542;48.360;10.958;2023-03-23T09:52:53;95643.59;;;15.83;50.08
56668;BME280;42542;48.360;10.958;2023-03-23T09:55:54;95641.09;;;15.88;50.48
56668;BME280;42542;48.360;10.958;2023-03-23T10:02:21;95654.75;;;15.99;49.99
56668;BME280;42542;48.360;10.958;2023-03-23T10:05:42;95656.22;;;16.02;48.48
56668;BME280;42542;48.360;10.958;2023-03-23T10:08:51;95659.09;;;16.00;48.02
56668;BME280;42542;48.360;10.958;2023-03-23T10:12:04;95644.59;;;16.01;48.12
56668;BME280;42542;48.360;10.958;2023-03-23T10:15:25;95655.81;;;16.05;47.49
56668;BME280;42542;48.360;10.958;2023-03-23T10:21:41;95658.50;;;16.12;48.02
56668;BME280;42542;48.360;10.958;2023-03-23T10:25:24;95664.28;;;16.15;48.53
56668;BME280;42542;48.360;10.958;2023-03-23T10:28:37;95658.88;;;16.15;48.46
56668;BME280;42542;48.360;10.958;2023-03-23T10:31:45;95663.25;;;16.16;48.11
56668;BME280;42542;48.360;10.958;2023-03-23T10:35:01;95662.22;;;16.17;48.04
56668;BME280;42542;48.360;10.958;2023-03-23T10:38:12;95658.28;;;16.20;48.55
56668;BME280;42542;48.360;10.958;2023-03-23T10:41:17;95668.59;;;16.29;48.58
56668;BME280;42542;48.360;10.958;2023-03-23T10:44:19;95659.06;;;16.33;47.92
56668;BME280;42542;48.360;10.958;2023-03-23T10:47:20;95660.91;;;16.39;48.06
56668;BME280;42542;48.360;10.958;2023-03-23T10:50:29;95653.84;;;16.45;48.11
56668;BME280;42542;48.360;10.958;2023-03-23T10:53:42;95646.75;;;16.51;47.71
56668;BME280;42542;48.360;10.958;2023-03-23T10:56:44;95651.09;;;16.58;47.93
56668;BME280;42542;48.360;10.958;2023-03-23T10:59:47;95647.38;;;16.66;47.71
56668;BME280;42542;48.360;10.958;2023-03-23T11:03:07;95653.97;;;16.76;47.11
56668;BME280;42542;48.360;10.958;2023-03-23T11:06:26;95653.28;;;16.88;48.01
56668;BME280;42542;48.360;10.958;2023-03-23T11:09:50;95648.28;;;16.98;47.52
56668;BME280;42542;48.360;10.958;2023-03-23T11:12:57;95643.47;;;17.06;47.59
56668;BME280;42542;48.360;10.958;2023-03-23T11:15:59;95646.97;;;17.13;46.92
56668;BME280;42542;48.360;10.958;2023-03-23T11:19:12;95647.34;;;17.17;46.56
56668;BME280;42542;48.360;10.958;2023-03-23T11:22:26;95653.16;;;17.21;45.88
56668;BME280;42542;48.360;10.958;2023-03-23T11:25:28;95647.13;;;17.18;45.73
56668;BME280;42542;48.360;10.958;2023-03-23T11:28:32;95648.16;;;17.17;46.70
56668;BME280;42542;48.360;10.958;2023-03-23T11:31:40;95648.56;;;17.21;46.66
56668;BME280;42542;48.360;10.958;2023-03-23T11:34:45;95656.69;;;17.21;46.57
56668;BME280;42542;48.360;10.958;2023-03-23T11:37:52;95651.66;;;17.25;45.73
56668;BME280;42542;48.360;10.958;2023-03-23T11:40:54;95662.91;;;17.22;45.48
56668;BME280;42542;48.360;10.958;2023-03-23T11:43:54;95662.47;;;17.25;45.66
56668;BME280;42542;48.360;10.958;2023-03-23T11:47:35;95656.41;;;17.29;44.99
56668;BME280;42542;48.360;10.958;2023-03-23T11:50:51;95662.38;;;17.38;45.82
56668;BME280;42542;48.360;10.958;2023-03-23T11:57:11;95663.78;;;17.47;45.54
56668;BME280;42542;48.360;10.958;2023-03-23T12:00:19;95662.31;;;17.44;45.00
56668;BME280;42542;48.360;10.958;2023-03-23T12:03:21;95665.84;;;17.45;45.26
56668;BME280;42542;48.360;10.958;2023-03-23T12:06:43;95658.59;;;17.45;45.47
56668;BME280;42542;48.360;10.958;2023-03-23T12:23:20;95659.47;;;17.39;44.72
56668;BME280;42542;48.360;10.958;2023-03-23T12:33:29;95650.63;;;17.26;44.61
56668;BME280;42542;48.360;10.958;2023-03-23T12:40:19;95651.44;;;17.26;44.79
56668;BME280;42542;48.360;10.958;2023-03-23T12:50:15;95640.88;;;17.18;44.64
56668;BME280;42542;48.360;10.958;2023-03-23T12:53:34;95641.72;;;17.18;44.96
56668;BME280;42542;48.360;10.958;2023-03-23T13:04:05;95641.72;;;17.18;45.25
56668;BME280;42542;48.360;10.958;2023-03-23T13:07:21;95631.75;;;17.19;44.99
56668;BME280;42542;48.360;10.958;2023-03-23T13:10:32;95630.50;;;17.22;45.45
56668;BME280;42542;48.360;10.958;2023-03-23T13:13:50;95625.25;;;17.27;45.81
56668;BME280;42542;48.360;10.958;2023-03-23T13:20:33;95614.25;;;17.28;45.22
56668;BME280;42542;48.360;10.958;2023-03-23T13:23:40;95615.88;;;17.29;45.48
56668;BME280;42542;48.360;10.958;2023-03-23T13:26:43;95609.22;;;17.32;46.15
56668;BME280;42542;48.360;10.958;2023-03-23T13:29:45;95618.97;;;17.33;45.55
56668;BME280;42542;48.360;10.958;2023-03-23T13:32:47;95613.94;;;17.36;46.28
56668;BME280;42542;48.360;10.958;2023-03-23T13:35:49;95598.00;;;17.35;46.23
56668;BME280;42542;48.360;10.958;2023-03-23T13:38:51;95602.88;;;17.44;46.27
56668;BME280;42542;48.360;10.958;2023-03-23T13:48:40;95589.94;;;17.53;45.60
56668;BME280;42542;48.360;10.958;2023-03-23T13:54:47;95595.09;;;17.61;45.81
56668;BME280;42542;48.360;10.958;2023-03-23T13:57:54;95590.47;;;17.68;45.84
56668;BME280;42542;48.360;10.958;2023-03-23T14:01:10;95580.28;;;17.70;44.92
56668;BME280;42542;48.360;10.958;2023-03-23T14:04:17;95582.97;;;17.70;44.71
56668;BME280;42542;48.360;10.958;2023-03-23T14:07:19;95588.53;;;17.75;45.84
56668;BME280;42542;48.360;10.958;2023-03-23T14:10:20;95576.88;;;17.75;45.27
56668;BME280;42542;48.360;10.958;2023-03-23T14:16:44;95592.97;;;17.70;44.56
56668;BME280;42542;48.360;10.958;2023-03-23T14:19:51;95591.97;;;17.64;45.43
56668;BME280;42542;48.360;10.958;2023-03-23T14:22:57;95590.91;;;17.58;45.46
56668;BME280;42542;48.360;10.958;2023-03-23T14:26:11;95594.72;;;17.51;45.45
56668;BME280;42542;48.360;10.958;2023-03-23T14:29:13;95595.41;;;17.46;44.93
56668;BME280;42542;48.360;10.958;2023-03-23T14:32:17;95597.31;;;17.39;45.29
56668;BME280;42542;48.360;10.958;2023-03-23T14:35:30;95588.84;;;17.29;45.15
56668;BME280;42542;48.360;10.958;2023-03-23T14:38:32;95592.22;;;17.25;45.22
56668;BME280;42542;48.360;10.958;2023-03-23T14:41:35;95586.44;;;17.21;45.51
56668;BME280;42542;48.360;10.958;2023-03-23T14:44:43;95592.28;;;17.18;45.51
56668;BME280;42542;48.360;10.958;2023-03-23T14:48:01;95592.31;;;17.11;45.29
56668;BME280;42542;48.360;10.958;2023-03-23T14:51:05;95594.41;;;17.09;45.42
56668;BME280;42542;48.360;10.958;2023-03-23T14:54:08;95594.84;;;17.06;45.68
56668;BME280;42542;48.360;10.958;2023-03-23T14:57:18;95600.88;;;17.02;46.08
56668;BME280;42542;48.360;10.958;2023-03-23T15:00:23;95594.31;;;16.91;46.45
56668;BME280;42542;48.360;10.958;2023-03-23T15:03:24;95600.75;;;16.90;46.26
56668;BME280;42542;48.360;10.958;2023-03-23T15:06:30;95597.88;;;16.85;46.37
56668;BME280;42542;48.360;10.958;2023-03-23T15:09:32;95592.28;;;16.80;46.50
56668;BME280;42542;48.360;10.958;2023-03-23T15:12:34;95592.72;;;16.77;47.04
56668;BME280;42542;48.360;10.958;2023-03-23T15:15:36;95593.56;;;16.77;47.14
56668;BME280;42542;48.360;10.958;2023-03-23T15:18:39;95595.03;;;16.73;47.49
56668;BME280;42542;48.360;10.958;2023-03-23T15:22:20;95602.50;;;16.71;48.40
56668;BME280;42542;48.360;10.958;2023-03-23T15:25:29;95593.59;;;16.71;49.04
56668;BME280;42542;48.360;10.958;2023-03-23T15:28:31;95617.28;;;16.62;49.48
56668;BME280;42542;48.360;10.958;2023-03-23T15:31:44;95602.97;;;16.55;49.50
56668;BME280;42542;48.360;10.958;2023-03-23T15:34:45;95602.56;;;16.52;50.11
56668;BME280;42542;48.360;10.958;2023-03-23T15:38:14;95602.16;;;16.48;49.74
56668;BME280;42542;48.360;10.958;2023-03-23T15:41:26;95602.41;;;16.40;49.19
56668;BME280;42542;48.360;10.958;2023-03-23T15:44:33;95608.22;;;16.30;49.35
56668;BME280;42542;48.360;10.958;2023-03-23T15:50:42;95597.06;;;16.27;49.81
56668;BME280;42542;48.360;10.958;2023-03-23T15:53:44;95596.00;;;16.21;50.09
56668;BME280;42542;48.360;10.958;2023-03-23T15:56:46;95607.84;;;16.14;50.28
56668;BME280;42542;48.360;10.958;2023-03-23T15:59:47;95597.09;;;16.07;50.92
56668;BME280;42542;48.360;10.958;2023-03-23T16:03:00;95590.28;;;15.98;50.61
56668;BME280;42542;48.360;10.958;2023-03-23T16:06:03;95608.31;;;15.97;50.95
56668;BME280;42542;48.360;10.958;2023-03-23T16:09:06;95591.31;;;15.97;50.93
56668;BME280;42542;48.360;10.958;2023-03-23T16:12:12;95604.38;;;15.93;51.10
56668;BME280;42542;48.360;10.958;2023-03-23T16:15:15;95600.25;;;15.91;51.59
56668;BME280;42542;48.360;10.958;2023-03-23T16:18:19;95605.41;;;15.92;51.86
56668;BME280;42542;48.360;10.958;2023-03-23T16:21:22;95597.97;;;15.88;51.85
56668;BME280;42542;48.360;10.958;2023-03-23T16:24:24;95595.47;;;15.86;52.06
56668;BME280;42542;48.360;10.958;2023-03-23T16:27:26;95591.34;;;15.84;52.04
56668;BME280;42542;48.360;10.958;2023-03-23T16:30:31;95596.94;;;15.82;52.71
56668;BME280;42542;48.360;10.958;2023-03-23T16:33:34;95592.78;;;15.80;52.34
56668;BME280;42542;48.360;10.958;2023-03-23T16:36:36;95590.94;;;15.74;52.59
56668;BME280;42542;48.360;10.958;2023-03-23T16:39:38;95597.78;;;15.76;52.61
56668;BME280;42542;48.360;10.958;2023-03-23T16:42:42;95594.28;;;15.69;52.63
56668;BME280;42542;48.360;10.958;2023-03-23T16:45:45;95596.97;;;15.69;52.52
56668;BME280;42542;48.360;10.958;2023-03-23T16:48:47;95598.81;;;15.69;53.02
56668;BME280;42542;48.360;10.958;2023-03-23T16:51:50;95603.78;;;15.65;53.13
56668;BME280;42542;48.360;10.958;2023-03-23T16:54:51;95610.22;;;15.64;53.29
56668;BME280;42542;48.360;10.958;2023-03-23T16:57:54;95598.41;;;15.58;53.37
56668;BME280;42542;48.360;10.958;2023-03-23T17:01:13;95601.09;;;15.58;53.24
56668;BME280;42542;48.360;10.958;2023-03-23T17:04:16;95601.31;;;15.57;53.54
56668;BME280;42542;48.360;10.958;2023-03-23T17:07:18;95599.66;;;15.56;53.63
56668;BME280;42542;48.360;10.958;2023-03-23T17:10:21;95601.31;;;15.57;54.36
56668;BME280;42542;48.360;10.958;2023-03-23T17:13:25;95605.66;;;15.58;54.15
56668;BME280;42542;48.360;10.958;2023-03-23T17:16:28;95596.97;;;15.56;53.99
56668;BME280;42542;48.360;10.958;2023-03-23T17:19:30;95597.19;;;15.54;53.92
56668;BME280;42542;48.360;10.958;2023-03-23T17:22:32;95589.28;;;15.53;53.70
56668;BME280;42542;48.360;10.958;2023-03-23T17:25:34;95599.22;;;15.52;54.24
56668;BME280;42542;48.360;10.958;2023-03-23T17:28:36;95598.78;;;15.49;54.92
56668;BME280;42542;48.360;10.958;2023-03-23T17:31:37;95603.56;;;15.47;55.47
56668;BME280;42542;48.360;10.958;2023-03-23T17:34:41;95597.94;;;15.42;56.13
56668;BME280;42542;48.360;10.958;2023-03-23T17:37:42;95608.13;;;15.40;55.94
56668;BME280;42542;48.360;10.958;2023-03-23T17:40:44;95607.09;;;15.34;56.13
56668;BME280;42542;48.360;10.958;2023-03-23T17:43:46;95607.69;;;15.30;56.28
56668;BME280;42542;48.360;10.958;2023-03-23T17:46:49;95617.03;;;15.27;56.52
56668;BME280;42542;48.360;10.958;2023-03-23T17:49:51;95620.13;;;15.24;56.79
56668;BME280;42542;48.360;10.958;2023-03-23T17:52:53;95621.34;;;15.21;57.73
56668;BME280;42542;48.360;10.958;2023-03-23T17:55:55;95622.38;;;15.14;58.11